Time;durP1;ratioP1;P1;durP2;ratioP2;P2;SDS_P1;SDS_P2;PMS_P1;PMS_P2;Temp;Humidity;BMP_temperature;BMP_pressure;BME280_temperature;BME280_humidity;BME280_pressure;Samples;Min_cycle;Max_cycle;Signal;HPM_P1;HPM_P2
2021/11/12 00:14:50;;;;;;;56.40;29.40;;;8.20;88.60;;;;;;5073070;28;20020;-36
2021/11/12 00:17:18;;;;;;;61.47;31.67;;;8.20;88.60;;;;;;5072560;28;20060;-36
2021/11/12 00:19:44;;;;;;;61.00;32.22;;;8.10;88.60;;;;;;5072575;28;20039;-36
2021/11/12 00:22:11;;;;;;;59.33;31.63;;;8.00;88.80;;;;;;5072566;28;20020;-36
2021/11/12 00:24:37;;;;;;;58.78;31.63;;;8.00;89.00;;;;;;5072908;28;20024;-37
2021/11/12 00:27:05;;;;;;;60.95;30.17;;;8.00;89.10;;;;;;5072621;28;20427;-36
2021/11/12 00:30:00;;;;;;;57.97;29.38;;;8.00;88.90;;;;;;5072861;28;20029;-36
2021/11/12 00:32:40;;;;;;;59.50;30.60;;;7.80;88.90;;;;;;5072456;28;20036;-37
2021/11/12 00:40:22;;;;;;;64.07;32.55;;;7.80;89.50;;;;;;5072846;28;20074;-36
2021/11/12 00:45:22;;;;;;;62.58;30.35;;;7.80;89.70;;;;;;5072453;28;20028;-36
2021/11/12 00:47:55;;;;;;;63.28;34.33;;;7.80;89.80;;;;;;5072731;28;20051;-36
2021/11/12 00:55:24;;;;;;;61.20;33.95;;;7.70;90.20;;;;;;5072597;28;20031;-37
2021/11/12 00:57:51;;;;;;;77.28;34.28;;;7.80;89.90;;;;;;5072172;28;20036;-37
2021/11/12 01:00:17;;;;;;;59.80;31.95;;;7.80;89.80;;;;;;5072523;28;20048;-37
2021/11/12 01:02:43;;;;;;;61.65;32.47;;;7.80;89.70;;;;;;5072364;28;20415;-36
2021/11/12 01:05:09;;;;;;;62.83;31.58;;;7.80;89.60;;;;;;5072564;28;20039;-37
2021/11/12 01:07:36;;;;;;;62.90;31.00;;;7.70;89.80;;;;;;5071250;28;20079;-36
2021/11/12 01:10:05;;;;;;;60.45;31.92;;;7.70;90.00;;;;;;5075972;28;20025;-37
2021/11/12 01:12:31;;;;;;;52.13;30.23;;;7.70;90.10;;;;;;5075904;28;20036;-36
2021/11/12 01:14:57;;;;;;;61.25;31.63;;;7.70;90.30;;;;;;5075768;28;20051;-36
2021/11/12 01:17:24;;;;;;;54.72;31.80;;;7.70;90.50;;;;;;5075876;28;20461;-37
2021/11/12 01:19:50;;;;;;;66.57;31.23;;;7.80;90.50;;;;;;5075496;28;20028;-37
2021/11/12 01:22:16;;;;;;;59.78;31.75;;;7.90;90.40;;;;;;5075431;28;20384;-36
2021/11/12 01:24:43;;;;;;;61.92;32.38;;;7.80;89.90;;;;;;5076038;28;20032;-37
2021/11/12 01:27:09;;;;;;;59.40;28.92;;;7.70;90.00;;;;;;5075543;28;20028;-37
2021/11/12 01:29:35;;;;;;;56.30;31.58;;;7.70;90.10;;;;;;5076028;28;20032;-37
2021/11/12 01:34:48;;;;;;;68.53;29.67;;;7.60;90.30;;;;;;5076242;28;20471;-38
2021/11/12 01:37:16;;;;;;;56.65;30.65;;;7.60;90.50;;;;;;5075420;28;20020;-37
2021/11/12 01:39:42;;;;;;;64.53;32.58;;;7.50;90.70;;;;;;5075740;28;20024;-37
2021/11/12 01:42:08;;;;;;;55.40;29.20;;;7.50;90.80;;;;;;5075394;28;20380;-37
2021/11/12 01:44:36;;;;;;;63.60;33.28;;;7.40;90.90;;;;;;5075427;28;20402;-37
2021/11/12 01:49:41;;;;;;;55.35;29.98;;;7.40;91.20;;;;;;5075286;28;20033;-37
2021/11/12 01:54:42;;;;;;;60.33;30.95;;;7.30;91.30;;;;;;5075219;28;20032;-37
2021/11/12 01:59:51;;;;;;;49.03;29.10;;;7.20;91.30;;;;;;5075005;28;20433;-37
2021/11/12 02:02:17;;;;;;;56.97;30.45;;;7.20;91.40;;;;;;5074773;28;20426;-37
2021/11/12 02:04:43;;;;;;;68.85;32.22;;;7.20;91.40;;;;;;5074768;28;20517;-37
2021/11/12 02:07:11;;;;;;;64.80;31.73;;;7.10;91.50;;;;;;5074575;28;20045;-38
2021/11/12 02:09:39;;;;;;;63.40;32.50;;;7.10;91.80;;;;;;5074966;28;20107;-37
2021/11/12 02:12:34;;;;;;;72.93;32.72;;;7.00;91.90;;;;;;5074906;28;20480;-37
2021/11/12 02:14:58;;;;;;;63.78;31.65;;;7.00;92.00;;;;;;5074313;28;20044;-37
2021/11/12 02:17:28;;;;;;;58.65;33.20;;;7.00;92.00;;;;;;5074611;28;20500;-36
2021/11/12 02:20:21;;;;;;;57.35;30.83;;;6.90;92.10;;;;;;5074491;28;20008;-37
2021/11/12 02:22:45;;;;;;;68.43;34.30;;;7.10;92.10;;;;;;5074763;28;20029;-37
2021/11/12 02:25:21;;;;;;;67.95;32.10;;;7.00;92.10;;;;;;5074547;28;20356;-37
2021/11/12 02:27:54;;;;;;;60.05;33.28;;;7.00;92.10;;;;;;5074498;28;20028;-37
2021/11/12 02:30:25;;;;;;;61.85;32.47;;;7.10;92.10;;;;;;5074226;28;20029;-38
2021/11/12 02:33:08;;;;;;;57.92;32.20;;;7.10;92.20;;;;;;5074119;28;20028;-37
2021/11/12 02:35:37;;;;;;;64.80;33.88;;;7.10;92.30;;;;;;5074451;28;20511;-37
2021/11/12 02:38:04;;;;;;;62.78;32.47;;;7.10;92.00;;;;;;5074317;28;20118;-37
2021/11/12 02:40:33;;;;;;;55.50;30.77;;;7.00;92.00;;;;;;5074548;28;20033;-37
2021/11/12 02:43:00;;;;;;;63.90;35.58;;;7.10;92.00;;;;;;5074532;28;20021;-37
2021/11/12 02:45:25;;;;;;;62.60;33.92;;;7.10;91.80;;;;;;5074187;28;20032;-37
2021/11/12 02:47:51;;;;;;;66.57;32.65;;;7.10;91.80;;;;;;5074444;28;20381;-37
2021/11/12 02:50:19;;;;;;;64.10;33.38;;;7.10;91.80;;;;;;5074248;28;20032;-37
2021/11/12 02:52:48;;;;;;;60.70;32.80;;;7.00;91.80;;;;;;5073990;28;20032;-37
2021/11/12 02:55:20;;;;;;;73.93;34.78;;;7.00;91.90;;;;;;5074273;28;20422;-37
2021/11/12 02:57:46;;;;;;;69.80;31.77;;;7.10;91.80;;;;;;5074088;28;20028;-37
2021/11/12 03:00:15;;;;;;;65.72;33.33;;;7.00;91.60;;;;;;5073874;28;20032;-37
2021/11/12 03:02:41;;;;;;;76.65;32.90;;;7.00;91.80;;;;;;5073879;28;20074;-37
2021/11/12 03:05:07;;;;;;;57.00;32.45;;;7.00;91.90;;;;;;5073852;28;20020;-37
2021/11/12 03:07:32;;;;;;;57.70;32.05;;;6.90;91.90;;;;;;5073660;28;20052;-37
2021/11/12 03:09:58;;;;;;;63.08;33.38;;;6.90;92.10;;;;;;5073853;28;20090;-38
2021/11/12 03:12:24;;;;;;;58.35;33.78;;;7.00;92.20;;;;;;5073629;28;20054;-37
2021/11/12 03:14:51;;;;;;;59.10;33.00;;;6.90;92.20;;;;;;5073654;28;20027;-37
2021/11/12 03:17:17;;;;;;;61.25;32.30;;;6.90;92.20;;;;;;5073475;28;20073;-38
2021/11/12 03:19:44;;;;;;;62.30;33.63;;;6.90;92.30;;;;;;5073416;28;20028;-37
2021/11/12 03:22:15;;;;;;;71.32;33.60;;;7.00;92.30;;;;;;5073455;28;20021;-37
2021/11/12 03:24:46;;;;;;;66.30;35.22;;;7.10;92.30;;;;;;5073732;28;20444;-37
2021/11/12 04:05:34;;;;;;;46.15;24.30;;;6.90;91.80;;;;;;5069330;28;20033;-37
2021/11/12 05:56:37;;;;;;;59.65;32.45;;;5.40;93.70;;;;;;5075178;28;20036;-37
2021/11/12 05:59:04;;;;;;;59.53;29.77;;;5.30;93.80;;;;;;5075272;28;20020;-37
2021/11/12 06:01:31;;;;;;;54.25;27.05;;;5.30;93.90;;;;;;5075194;28;20031;-38
2021/11/12 06:03:57;;;;;;;46.13;26.55;;;5.30;94.00;;;;;;5075171;28;20020;-39
2021/11/12 06:06:23;;;;;;;54.65;27.73;;;5.30;94.00;;;;;;5075091;28;20071;-37
2021/11/12 06:08:49;;;;;;;54.40;30.38;;;5.20;94.10;;;;;;5075327;28;20025;-37
2021/11/12 06:11:14;;;;;;;60.15;27.77;;;5.20;94.20;;;;;;5074884;28;20024;-45
2021/11/12 06:13:40;;;;;;;58.55;27.55;;;5.20;94.10;;;;;;5075363;28;20027;-36
2021/11/12 06:16:06;;;;;;;49.58;27.58;;;5.10;94.00;;;;;;5075100;28;20499;-37
2021/11/12 06:18:32;;;;;;;54.55;26.38;;;5.10;93.90;;;;;;5074543;28;20078;-37
2021/11/12 06:20:58;;;;;;;42.90;20.65;;;5.00;93.90;;;;;;5074179;28;20070;-37
2021/11/12 06:23:23;;;;;;;40.10;22.58;;;5.00;93.80;;;;;;5074715;28;20364;-37
2021/11/12 06:25:49;;;;;;;40.17;21.45;;;4.90;93.70;;;;;;5073196;28;20143;-37
2021/11/12 06:28:15;;;;;;;35.03;19.95;;;4.90;93.70;;;;;;5074060;28;20036;-37
2021/11/12 06:30:41;;;;;;;32.17;19.25;;;4.80;93.60;;;;;;5074525;28;20111;-37
2021/11/12 06:33:06;;;;;;;30.23;18.90;;;4.80;93.50;;;;;;5074316;28;20101;-37
2021/11/12 06:35:32;;;;;;;31.90;17.77;;;4.80;93.50;;;;;;5072864;28;20028;-37
2021/11/12 06:37:58;;;;;;;35.33;18.23;;;4.80;93.40;;;;;;5074049;28;20029;-38
2021/11/12 06:40:24;;;;;;;31.83;17.92;;;4.80;93.30;;;;;;5074409;28;20433;-37
2021/11/12 06:50:56;;;;;;;29.45;16.05;;;4.50;93.10;;;;;;5073810;28;20569;-37
2021/11/12 06:53:22;;;;;;;31.95;16.75;;;4.50;93.00;;;;;;5073895;28;20457;-37
2021/11/12 06:55:49;;;;;;;35.17;19.40;;;4.50;92.90;;;;;;5073822;28;20479;-36
2021/11/12 06:58:15;;;;;;;37.78;18.48;;;4.50;92.80;;;;;;5073712;28;20028;-36
2021/11/12 07:00:41;;;;;;;41.38;18.13;;;4.50;92.70;;;;;;5073467;28;20028;-36
2021/11/12 07:03:07;;;;;;;37.92;19.58;;;4.50;92.60;;;;;;5073706;28;20372;-38
2021/11/12 07:05:33;;;;;;;37.55;19.52;;;4.40;92.60;;;;;;5073650;28;20020;-36
2021/11/12 07:07:59;;;;;;;40.53;20.70;;;4.40;92.70;;;;;;5073814;28;20158;-37
2021/11/12 07:10:24;;;;;;;37.85;19.92;;;4.40;92.70;;;;;;5073457;28;20024;-37
2021/11/12 07:12:51;;;;;;;37.22;19.13;;;4.30;92.70;;;;;;5073470;28;20020;-39
2021/11/12 07:15:18;;;;;;;45.30;21.73;;;4.30;92.90;;;;;;5073163;28;20033;-37
2021/11/12 07:17:46;;;;;;;41.17;20.52;;;4.30;92.90;;;;;;5073028;28;20025;-37
2021/11/12 07:20:12;;;;;;;40.05;20.42;;;4.30;92.90;;;;;;5071719;28;20024;-37
2021/11/12 07:22:38;;;;;;;40.05;21.63;;;4.30;93.00;;;;;;5072950;28;20016;-38
2021/11/12 07:25:06;;;;;;;42.05;21.73;;;4.40;93.10;;;;;;5073003;28;20460;-37
2021/11/12 07:27:32;;;;;;;35.05;18.08;;;4.30;93.00;;;;;;5072687;28;20032;-37
2021/11/12 07:29:58;;;;;;;45.42;22.15;;;4.40;93.00;;;;;;5073244;28;20420;-36
2021/11/12 07:32:23;;;;;;;39.70;20.63;;;4.40;93.00;;;;;;5072472;28;20020;-37
2021/11/12 07:34:51;;;;;;;41.92;21.77;;;4.40;93.00;;;;;;5073098;28;20039;-36
2021/11/12 07:37:18;;;;;;;40.55;20.77;;;4.40;93.00;;;;;;5072786;28;20112;-37
2021/11/12 07:42:18;;;;;;;40.08;21.50;;;4.50;92.90;;;;;;5072580;28;20110;-36
2021/11/12 07:47:16;;;;;;;40.17;21.48;;;4.50;92.80;;;;;;5072531;28;20077;-42
2021/11/12 07:49:43;;;;;;;44.83;24.97;;;4.60;92.90;;;;;;5072995;28;20028;-37
2021/11/12 07:52:10;;;;;;;50.70;23.58;;;4.70;93.00;;;;;;5072606;28;20025;-37
2021/11/12 07:54:39;;;;;;;42.80;22.35;;;4.80;92.70;;;;;;5072986;28;20032;-37
2021/11/12 07:57:06;;;;;;;41.33;22.23;;;5.00;92.50;;;;;;5072269;28;20048;-37
2021/11/12 07:59:32;;;;;;;35.80;20.42;;;5.20;92.00;;;;;;5073017;28;20099;-39
2021/11/12 08:01:58;;;;;;;40.78;21.48;;;5.10;91.30;;;;;;5072400;28;20118;-36
2021/11/12 08:04:24;;;;;;;45.03;22.52;;;5.20;91.00;;;;;;5072650;28;20473;-36
2021/11/12 08:06:53;;;;;;;36.95;21.33;;;5.30;90.50;;;;;;5072377;28;20049;-37
2021/11/12 08:09:21;;;;;;;30.50;18.88;;;5.50;90.30;;;;;;5072630;28;20492;-37
2021/11/12 08:11:52;;;;;;;34.47;18.50;;;5.90;89.60;;;;;;5072342;28;20020;-37
2021/11/12 08:19:35;;;;;;;31.13;18.20;;;6.80;85.50;;;;;;5072571;28;20020;-37
2021/11/12 08:35:16;;;;;;;30.20;18.88;;;7.80;81.20;;;;;;5072464;28;20039;-37
2021/11/12 08:40:52;;;;;;;29.85;17.52;;;6.70;84.40;;;;;;5072665;28;20027;-37
2021/11/12 08:45:57;;;;;;;43.50;23.58;;;6.70;85.20;;;;;;5071832;28;20032;-36
2021/11/12 08:48:38;;;;;;;46.33;22.55;;;6.40;85.50;;;;;;5072407;28;20111;-41
2021/11/12 08:51:07;;;;;;;52.00;24.17;;;6.00;86.70;;;;;;5072245;28;20083;-38
2021/11/12 08:53:33;;;;;;;47.20;25.58;;;6.00;86.90;;;;;;5072237;28;20156;-38
2021/11/12 08:55:59;;;;;;;45.13;22.75;;;5.90;87.40;;;;;;5071902;28;20029;-38
2021/11/12 08:58:25;;;;;;;47.55;24.63;;;5.80;87.60;;;;;;5071786;28;20032;-37
2021/11/12 09:00:51;;;;;;;49.05;26.88;;;5.90;87.80;;;;;;5072104;28;20079;-37
2021/11/12 09:03:18;;;;;;;37.97;23.35;;;5.80;88.20;;;;;;5070738;28;20069;-37
2021/11/12 09:05:44;;;;;;;39.47;23.17;;;5.80;88.10;;;;;;5071598;28;20052;-36
2021/11/12 09:08:09;;;;;;;48.08;23.88;;;5.90;88.20;;;;;;5070432;28;20392;-37
2021/11/12 09:10:35;;;;;;;41.80;22.77;;;6.00;88.10;;;;;;5072052;28;20031;-38
2021/11/12 09:13:19;;;;;;;42.95;23.63;;;6.10;87.70;;;;;;5071827;28;20119;-37
2021/11/12 09:15:52;;;;;;;38.58;22.67;;;6.10;87.90;;;;;;5071628;28;20016;-38
2021/11/12 09:18:21;;;;;;;39.45;23.25;;;6.00;88.00;;;;;;5071499;28;20032;-36
2021/11/12 09:20:48;;;;;;;40.20;24.10;;;6.00;87.80;;;;;;5071227;28;20016;-37
2021/11/12 09:23:15;;;;;;;45.70;24.85;;;6.10;88.00;;;;;;5069946;28;20036;-38
2021/11/12 09:25:41;;;;;;;41.95;23.92;;;5.90;88.40;;;;;;5071756;28;20028;-37
2021/11/12 09:28:06;;;;;;;43.65;22.88;;;6.00;88.00;;;;;;5071177;28;20032;-37
2021/11/12 09:30:35;;;;;;;43.67;26.35;;;6.10;87.50;;;;;;5074814;28;20044;-37
2021/11/12 09:33:06;;;;;;;41.08;23.70;;;6.40;87.50;;;;;;5074977;28;20032;-37
2021/11/12 09:35:32;;;;;;;36.15;22.60;;;6.50;86.20;;;;;;5075269;28;20039;-37
2021/11/12 09:37:58;;;;;;;30.52;19.55;;;6.50;86.60;;;;;;5073652;28;20048;-37
2021/11/12 09:40:24;;;;;;;36.90;21.55;;;6.30;86.90;;;;;;5075428;28;20035;-37
2021/11/12 09:42:51;;;;;;;37.63;24.17;;;6.30;87.10;;;;;;5074886;28;20024;-37
2021/11/12 09:45:18;;;;;;;33.72;20.98;;;6.30;87.20;;;;;;5074604;28;20107;-36
2021/11/12 09:47:44;;;;;;;38.22;21.92;;;6.60;86.90;;;;;;5073548;28;20021;-37
2021/11/12 09:50:18;;;;;;;38.70;23.60;;;6.70;85.70;;;;;;5074041;28;20028;-37
2021/11/12 09:52:45;;;;;;;32.75;21.60;;;6.80;85.70;;;;;;5075046;28;20058;-39
2021/11/12 09:55:12;;;;;;;33.17;20.33;;;6.80;85.50;;;;;;5075060;28;20023;-38
2021/11/12 09:57:40;;;;;;;32.90;19.15;;;6.60;85.30;;;;;;5074478;28;20124;-37
2021/11/12 10:00:11;;;;;;;36.05;20.38;;;6.50;85.30;;;;;;5074653;28;20020;-37
2021/11/12 10:02:41;;;;;;;;;;;7.00;84.70;;;;;;5075087;28;20100;-37
2021/11/12 10:05:10;;;;;;;35.65;19.55;;;7.10;83.90;;;;;;5075224;28;20238;-38
2021/11/12 10:07:38;;;;;;;34.85;20.77;;;7.10;84.30;;;;;;5074386;28;20053;-37
2021/11/12 10:10:08;;;;;;;30.92;19.88;;;7.00;84.00;;;;;;5074849;28;20475;-38
2021/11/12 10:12:40;;;;;;;;;;;7.20;83.30;;;;;;5074734;28;20033;-38
2021/11/12 10:15:21;;;;;;;28.75;18.25;;;7.10;83.20;;;;;;5074297;28;20308;-36
2021/11/12 10:17:48;;;;;;;33.13;19.23;;;6.90;84.30;;;;;;5074093;28;20055;-37
2021/11/12 10:20:17;;;;;;;27.38;13.82;;;7.10;83.80;;;;;;5074250;28;20035;-37
2021/11/12 10:22:45;;;;;;;30.98;18.23;;;6.90;84.20;;;;;;5073877;28;20021;-37
2021/11/12 10:25:12;;;;;;;31.15;18.02;;;6.80;84.30;;;;;;5073795;28;20389;-38
2021/11/12 10:27:40;;;;;;;28.02;17.25;;;7.00;83.90;;;;;;5073623;28;20028;-37
2021/11/12 10:30:14;;;;;;;28.88;19.10;;;7.20;83.30;;;;;;5073414;28;20399;-37
2021/11/12 10:32:45;;;;;;;31.17;18.55;;;7.30;82.90;;;;;;5073247;28;20024;-38
2021/11/12 10:35:31;;;;;;;32.90;19.58;;;7.30;82.70;;;;;;5073691;28;20028;-37
2021/11/12 10:38:10;;;;;;;35.10;19.80;;;7.30;83.00;;;;;;5074007;28;20044;-37
2021/11/12 10:40:36;;;;;;;32.35;19.70;;;7.60;82.20;;;;;;5071200;28;20077;-37
2021/11/12 10:43:02;;;;;;;31.80;17.92;;;7.70;82.00;;;;;;5073527;28;20108;-37
2021/11/12 10:45:31;;;;;;;29.95;17.40;;;7.80;81.60;;;;;;5073214;28;20465;-37
2021/11/12 10:48:03;;;;;;;27.80;16.98;;;8.00;80.60;;;;;;5073073;28;20516;-37
2021/11/12 10:50:31;;;;;;;29.38;16.98;;;7.70;80.60;;;;;;5073251;28;20421;-37
2021/11/12 10:53:08;;;;;;;23.70;16.10;;;7.80;80.50;;;;;;5073069;28;20055;-37
2021/11/12 10:55:35;;;;;;;29.75;16.52;;;8.00;79.60;;;;;;5072032;28;20032;-38
2021/11/12 10:58:06;;;;;;;25.35;16.42;;;7.90;79.40;;;;;;5072458;28;20105;-37
2021/11/12 11:00:36;;;;;;;32.25;16.67;;;8.00;79.40;;;;;;5073029;28;20028;-37
2021/11/12 11:03:09;;;;;;;27.43;17.47;;;8.00;78.60;;;;;;5073045;28;20044;-37
2021/11/12 11:05:38;;;;;;;22.48;13.63;;;7.90;79.10;;;;;;5072313;28;20429;-37
2021/11/12 11:08:07;;;;;;;26.88;15.02;;;8.00;78.90;;;;;;5072497;28;20056;-37
2021/11/12 11:10:39;;;;;;;22.13;13.85;;;8.00;78.40;;;;;;5072396;28;20131;-37
2021/11/12 11:13:10;;;;;;;26.48;13.57;;;8.10;78.50;;;;;;5073695;28;20594;-38
2021/11/12 11:15:41;;;;;;;23.65;15.38;;;8.30;78.00;;;;;;5073713;28;20492;-37
2021/11/12 11:21:00;;;;;;;23.30;13.32;;;8.40;76.50;;;;;;5072266;28;20024;-38
2021/11/12 11:23:28;;;;;;;21.77;14.27;;;8.50;76.20;;;;;;5071706;28;20028;-38
2021/11/12 11:25:57;;;;;;;23.30;14.18;;;8.70;75.30;;;;;;5072607;28;20125;-38
2021/11/12 11:28:22;;;;;;;19.85;13.10;;;8.90;74.90;;;;;;5072385;28;20074;-38
2021/11/12 11:30:48;;;;;;;23.58;15.25;;;9.10;73.80;;;;;;5071915;28;20025;-38
2021/11/12 11:33:16;;;;;;;20.15;12.65;;;9.00;74.10;;;;;;5072374;28;20032;-37
2021/11/12 11:35:44;;;;;;;20.80;13.63;;;9.00;73.90;;;;;;5072708;28;20030;-38
2021/11/12 11:38:11;;;;;;;21.95;14.00;;;9.10;73.50;;;;;;5072910;28;20033;-38
2021/11/12 11:40:40;;;;;;;24.58;13.98;;;9.20;73.30;;;;;;5072897;28;20028;-38
2021/11/12 11:43:09;;;;;;;21.40;13.10;;;9.20;73.50;;;;;;5072780;28;20101;-37
2021/11/12 11:45:36;;;;;;;23.15;13.68;;;9.10;73.10;;;;;;5072247;28;20020;-38
2021/11/12 11:48:03;;;;;;;24.30;16.10;;;9.20;73.30;;;;;;5070919;28;20134;-37
2021/11/12 11:50:31;;;;;;;23.15;12.50;;;9.20;73.50;;;;;;5072460;28;20035;-38
2021/11/12 11:53:19;;;;;;;19.83;12.75;;;9.10;73.10;;;;;;5071644;28;20024;-38
2021/11/12 11:55:46;;;;;;;21.88;12.73;;;9.10;73.40;;;;;;5077109;28;20039;-38
2021/11/12 11:58:40;;;;;;;17.73;10.73;;;9.20;73.10;;;;;;5072990;28;20052;-37
2021/11/12 12:01:34;;;;;;;21.63;12.77;;;9.10;72.90;;;;;;5070967;28;20036;-37
2021/11/12 12:04:07;;;;;;;22.20;13.80;;;9.20;72.80;;;;;;5071371;28;20025;-37
2021/11/12 12:06:34;;;;;;;18.77;11.48;;;9.40;72.60;;;;;;5072493;28;20079;-38
2021/11/12 12:09:11;;;;;;;22.98;14.23;;;9.30;72.00;;;;;;5072600;28;20509;-38
2021/11/12 12:11:51;;;;;;;21.10;13.10;;;9.40;72.00;;;;;;5073091;28;20024;-38
2021/11/12 12:14:20;;;;;;;23.10;13.88;;;9.60;71.00;;;;;;5072264;28;20021;-38
2021/11/12 12:17:09;;;;;;;20.35;12.55;;;9.60;70.90;;;;;;5072743;28;20057;-38
2021/11/12 12:30:58;;;;;;;23.67;14.25;;;9.80;69.90;;;;;;5072424;28;20027;-37
2021/11/12 13:25:29;;;;;;;24.67;13.73;;;10.30;66.20;;;;;;5075597;28;20039;-37
2021/11/12 13:28:09;;;;;;;20.73;12.88;;;10.30;66.50;;;;;;5075933;28;20028;-37
2021/11/12 13:30:36;;;;;;;19.23;13.07;;;10.40;66.00;;;;;;5075496;28;20052;-38
2021/11/12 13:33:03;;;;;;;20.15;12.13;;;10.20;67.00;;;;;;5075400;28;20112;-37
2021/11/12 13:35:34;;;;;;;25.52;14.15;;;10.20;67.10;;;;;;5075180;28;20028;-38
2021/11/12 13:38:01;;;;;;;25.90;14.05;;;10.30;66.60;;;;;;5074912;28;20037;-37
2021/11/12 13:40:34;;;;;;;22.20;12.73;;;10.40;66.60;;;;;;5073723;28;20073;-37
2021/11/12 13:43:01;;;;;;;22.45;12.57;;;10.40;66.80;;;;;;5075432;28;20059;-38
2021/11/12 13:45:30;;;;;;;24.35;15.15;;;10.50;65.60;;;;;;5075303;28;20024;-37
2021/11/12 13:48:09;;;;;;;22.92;11.95;;;10.50;65.70;;;;;;5074729;28;20036;-36
2021/11/12 13:50:41;;;;;;;22.93;13.20;;;10.60;64.50;;;;;;5075111;28;20079;-37
2021/11/12 13:53:07;;;;;;;17.42;9.63;;;10.60;64.10;;;;;;5074837;28;20044;-37
2021/11/12 13:55:36;;;;;;;18.42;11.48;;;10.30;64.50;;;;;;5074733;28;20398;-36
2021/11/12 13:58:05;;;;;;;18.65;12.60;;;10.30;65.00;;;;;;5075022;28;20035;-37
2021/11/12 14:00:31;;;;;;;16.27;11.02;;;10.50;64.00;;;;;;5074484;28;20032;-36
2021/11/12 14:03:06;;;;;;;24.98;11.95;;;10.50;64.20;;;;;;5074342;28;20047;-38
2021/11/12 14:05:34;;;;;;;16.20;9.65;;;10.50;64.00;;;;;;5073197;28;20027;-37
2021/11/12 14:08:08;;;;;;;17.00;9.90;;;10.40;64.10;;;;;;5075165;28;20032;-37
2021/11/12 14:10:44;;;;;;;17.15;10.45;;;10.50;63.80;;;;;;5074628;28;20025;-37
2021/11/12 14:13:11;;;;;;;16.38;11.00;;;10.50;63.90;;;;;;5074921;28;20031;-45
2021/11/12 14:15:45;;;;;;;15.32;9.55;;;10.70;62.90;;;;;;5073443;28;20027;-37
2021/11/12 14:29:49;;;;;;;15.00;9.88;;;10.30;63.80;;;;;;5074637;28;20052;-37
2021/11/12 14:40:14;;;;;;;18.60;10.60;;;10.50;63.00;;;;;;5074103;28;20021;-37
2021/11/12 14:45:41;;;;;;;24.13;10.32;;;10.30;64.00;;;;;;5074437;28;20033;-37
2021/11/12 14:56:37;;;;;;;15.07;8.95;;;10.30;65.00;;;;;;5073779;28;20021;-37
2021/11/12 14:58:53;;;;;;;16.95;10.40;;;10.20;65.50;;;;;;5072844;28;20392;-37
2021/11/12 15:01:21;;;;;;;16.17;10.10;;;10.20;65.30;;;;;;5073292;28;20024;-37
2021/11/12 15:03:48;;;;;;;15.85;9.63;;;10.20;65.20;;;;;;5073301;28;20044;-38
2021/11/12 15:06:17;;;;;;;17.58;10.82;;;10.20;65.00;;;;;;5073252;28;20085;-37
2021/11/12 15:11:48;;;;;;;14.40;9.05;;;10.10;65.20;;;;;;5070996;28;20087;-36
2021/11/12 15:14:19;;;;;;;19.07;9.57;;;10.00;65.60;;;;;;5073411;28;20495;-36
2021/11/12 15:16:45;;;;;;;14.25;9.05;;;9.90;66.10;;;;;;5073768;28;20277;-37
2021/11/12 15:19:15;;;;;;;17.90;8.63;;;9.80;66.30;;;;;;5073470;28;20503;-37
2021/11/12 15:25:04;;;;;;;13.95;9.63;;;9.80;66.70;;;;;;5072842;28;20025;-37
2021/11/12 15:30:14;;;;;;;19.92;10.55;;;9.70;67.00;;;;;;5074104;28;20028;-37
2021/11/12 15:32:44;;;;;;;17.92;10.10;;;9.60;67.60;;;;;;5073701;28;20425;-37
2021/11/12 15:35:14;;;;;;;16.75;8.88;;;9.50;67.50;;;;;;5072967;28;20058;-37
2021/11/12 15:37:47;;;;;;;15.23;9.63;;;9.60;67.00;;;;;;5071672;28;20033;-37
2021/11/12 15:40:26;;;;;;;17.85;11.02;;;9.60;66.80;;;;;;5071739;28;20055;-37
2021/11/12 15:48:09;;;;;;;22.60;10.10;;;9.50;66.50;;;;;;5072537;28;20465;-37
2021/11/12 15:58:54;;;;;;;16.58;10.30;;;9.30;67.80;;;;;;5072987;28;20024;-36
2021/11/12 16:01:57;;;;;;;19.38;12.77;;;9.20;67.80;;;;;;5072701;28;20028;-37
2021/11/12 16:14:33;;;;;;;17.02;8.77;;;9.10;68.10;;;;;;5072715;28;20078;-37
2021/11/12 16:22:30;;;;;;;19.27;10.27;;;9.00;68.20;;;;;;5072038;28;20056;-37
2021/11/12 16:27:37;;;;;;;14.35;8.82;;;8.90;68.70;;;;;;5072010;28;20077;-38
2021/11/12 16:30:07;;;;;;;16.90;9.02;;;8.80;69.20;;;;;;5071841;28;20025;-38
2021/11/12 16:32:40;;;;;;;14.43;8.80;;;8.80;69.50;;;;;;5072137;28;20054;-37
2021/11/12 16:35:09;;;;;;;17.88;10.60;;;8.70;69.70;;;;;;5072462;28;20455;-38
2021/11/12 16:37:35;;;;;;;16.35;9.55;;;8.70;69.90;;;;;;5070993;28;20032;-37
2021/11/12 16:40:09;;;;;;;17.98;10.18;;;8.70;70.30;;;;;;5074979;28;20021;-37
2021/11/12 16:45:15;;;;;;;21.42;10.48;;;8.80;70.30;;;;;;5076727;28;20370;-38
2021/11/12 16:53:08;;;;;;;24.40;13.88;;;8.60;71.60;;;;;;5076613;28;20036;-38
2021/11/12 16:56:08;;;;;;;22.38;11.73;;;8.50;71.90;;;;;;5074804;28;20025;-36
2021/11/12 17:06:50;;;;;;;21.13;12.10;;;8.40;73.20;;;;;;5075483;28;20092;-37
2021/11/12 17:09:45;;;;;;;20.23;10.90;;;8.40;73.30;;;;;;5076398;28;20143;-38
2021/11/12 17:47:04;;;;;;;23.23;13.45;;;8.30;73.80;;;;;;5074908;28;20082;-37
2021/11/12 18:03:00;;;;;;;26.48;11.98;;;8.50;72.70;;;;;;5074672;28;20031;-38
2021/11/12 18:08:11;;;;;;;23.73;11.85;;;8.30;73.20;;;;;;5074751;28;20029;-37
2021/11/12 18:22:07;;;;;;;19.17;10.35;;;8.20;73.90;;;;;;5074717;28;20035;-38
2021/11/12 21:48:43;;;;;;;12.68;8.20;;;9.30;71.20;;;;;;5075880;28;20127;-37
2021/11/12 21:51:13;;;;;;;11.88;8.30;;;9.30;71.60;;;;;;5075879;28;20028;-37
2021/11/12 21:53:38;;;;;;;15.37;8.90;;;9.10;74.70;;;;;;5075452;28;20033;-37
2021/11/12 21:56:06;;;;;;;13.90;8.95;;;8.90;76.90;;;;;;5076041;28;20058;-38
2021/11/12 21:58:32;;;;;;;14.70;9.60;;;8.80;78.00;;;;;;5075848;28;20021;-38
2021/11/12 22:01:01;;;;;;;24.27;8.73;;;8.70;79.00;;;;;;5075610;28;20024;-38
2021/11/12 22:03:29;;;;;;;13.93;8.40;;;8.60;79.50;;;;;;5075586;28;20027;-38
2021/11/12 22:05:58;;;;;;;13.80;7.95;;;8.50;80.30;;;;;;5075144;28;20041;-38
2021/11/12 22:08:24;;;;;;;15.45;7.63;;;8.50;81.10;;;;;;5076037;28;20069;-38
2021/11/12 22:10:50;;;;;;;19.85;11.57;;;8.50;81.70;;;;;;5074014;28;20039;-38
2021/11/12 22:13:16;;;;;;;17.08;10.75;;;8.30;82.00;;;;;;5075115;28;20032;-38
2021/11/12 22:15:42;;;;;;;14.00;9.35;;;8.40;82.10;;;;;;5075375;28;20024;-38
2021/11/12 22:18:10;;;;;;;14.25;9.32;;;8.40;81.30;;;;;;5074735;28;20094;-38
2021/11/12 22:20:37;;;;;;;22.30;12.63;;;8.50;81.20;;;;;;5075332;28;20056;-38
2021/11/12 22:23:03;;;;;;;15.88;8.88;;;8.60;80.40;;;;;;5075095;28;20033;-37
2021/11/12 22:25:29;;;;;;;15.25;8.55;;;8.50;80.60;;;;;;5075349;28;20082;-38
2021/11/12 22:27:55;;;;;;;19.55;10.07;;;8.50;80.90;;;;;;5075587;28;20111;-38
2021/11/12 22:30:20;;;;;;;13.18;9.20;;;8.50;81.10;;;;;;5075691;28;20425;-38
2021/11/12 22:32:46;;;;;;;17.25;10.32;;;8.60;81.00;;;;;;5073185;28;20396;-38
2021/11/12 22:35:12;;;;;;;19.50;8.88;;;8.60;80.90;;;;;;5074382;28;20103;-38
2021/11/12 22:37:39;;;;;;;18.60;10.48;;;8.70;80.80;;;;;;5074718;28;20472;-38
2021/11/12 22:40:08;;;;;;;15.57;9.43;;;8.70;81.40;;;;;;5056804;28;20060;-37
2021/11/12 22:42:35;;;;;;;15.35;9.13;;;8.60;81.30;;;;;;5074873;28;20020;-38
2021/11/12 22:45:00;;;;;;;15.32;8.85;;;8.60;81.30;;;;;;5075037;28;20032;-38
2021/11/12 22:47:27;;;;;;;15.25;10.07;;;8.70;81.10;;;;;;5074876;28;20453;-38
2021/11/12 22:49:53;;;;;;;15.25;9.93;;;8.80;80.70;;;;;;5074438;28;20029;-38
2021/11/12 22:52:18;;;;;;;16.98;10.13;;;8.80;80.70;;;;;;5074518;28;20115;-38
2021/11/12 22:54:47;;;;;;;18.95;9.88;;;8.80;80.90;;;;;;5074296;28;20032;-38
2021/11/12 22:57:16;;;;;;;16.45;9.70;;;8.80;81.00;;;;;;5072687;28;20120;-38
2021/11/12 22:59:43;;;;;;;18.63;10.10;;;9.00;80.40;;;;;;5074350;28;20032;-37
2021/11/12 23:02:09;;;;;;;16.42;9.52;;;9.00;80.50;;;;;;5074020;28;20375;-37
2021/11/12 23:04:34;;;;;;;17.02;9.52;;;9.00;80.30;;;;;;5073857;28;20020;-37
2021/11/12 23:07:00;;;;;;;14.85;8.73;;;9.00;80.00;;;;;;5073915;28;20393;-37
2021/11/12 23:09:26;;;;;;;20.58;11.35;;;8.80;80.70;;;;;;5074327;28;20063;-36
2021/11/12 23:11:51;;;;;;;16.20;10.50;;;8.80;80.90;;;;;;5074109;28;20090;-36
2021/11/12 23:14:17;;;;;;;18.88;9.80;;;8.90;80.30;;;;;;5074618;28;20028;-37
2021/11/12 23:16:43;;;;;;;12.30;7.40;;;9.00;80.20;;;;;;5074005;28;20025;-36
2021/11/12 23:19:08;;;;;;;13.00;7.97;;;8.90;80.40;;;;;;5073865;28;20096;-36
2021/11/12 23:21:34;;;;;;;16.55;8.48;;;9.00;80.50;;;;;;5073572;28;20020;-36
2021/11/12 23:24:00;;;;;;;11.23;6.65;;;9.10;80.10;;;;;;5073644;28;20017;-36
2021/11/12 23:26:26;;;;;;;17.90;9.35;;;9.00;80.50;;;;;;5072077;28;20124;-36
2021/11/12 23:28:53;;;;;;;12.63;8.48;;;9.10;80.50;;;;;;5072084;28;20472;-36